GRZ505 Details

Departure: Fairbanks International Airport (PAFA)
Arrival: Juneau International Airport (PAJN)
Route: FAI J502 SSR


Current Weather Information
PAFA 260153Z 03010KT 10SM SCT075 BKN090 09/M09 A3014 RMK AO2 SLP214 VIRGA T00891089 VISNO NE
PAJN 260153Z 11007KT 10SM FEW033 OVC060 06/02 A3016 RMK AO2 RAE48 SLP212 P0001 T00560022